Fayetteville, NY (13066)

8:30 PM EDT on April 26, 2015 (GMT -0400)
KC2HUX - Fayetteville Heights | | Change Station
CLOSE
Current Station
Personal Weather Station
Location: Fayetteville, NY
Elevation: 730 ft
Nearby Weather Stations

Elev 730 ft 43.03 °N, 75.98 °W | Updated 24 seconds ago

Overcast
Overcast
44.3 °F
Feels Like 44 °F
N
0.0
Wind Variable Wind from NNE
Gusts 1.0 mph

Today
High -- | Low -- °F
--% Chance of Precip.
Yesterday
High -- | Low -- °F
Precip. -- in
6:05 AM 7:59 PM
First Quarter, 60% visible
Pressure 29.77 in
Visibility 10.0 miles
Clouds Scattered Clouds 6000 ft
Windchill 44 °F
Dew Point 34 °F
Humidity 66%
Rainfall 0.00 in
Snow Depth Not available.
UV 0 out of 12
Pollen 8.30 out of 12
Air Quality Not available.
Flu Activity Widespread
METAR KSYR 262354Z 30006KT 10SM SCT060 07/M01 A2977 RMK AO2 SLP081 T00671006 10122 20067 53001

More Conditions Fewer Conditions

Pressure 29.77 in
Visibility 10.0 miles
Clouds Scattered Clouds 6000 ft
Windchill 44 °F
Dew Point 34 °F
Humidity 66%
Rainfall 0.00 in
Snow Depth Not available.
UV 0 out of 12
Pollen 8.30 out of 12
Air Quality Not available.
Flu Activity Widespread
METAR KSYR 262354Z 30006KT 10SM SCT060 07/M01 A2977 RMK AO2 SLP081 T00671006 10122 20067 53001

More Conditions Fewer Conditions

The full scope of the disaster following a powerful 7.8-magnitude earthquake in Nepal may not come into view for days, but global charities are already sending emergency aid. Click to see how you can help.

10-Day Weather Forecast

Almanac

Astronomy

Apr. 26, 2015 Rise Set
Actual Time
Civil Twilight
Nautical Twilight
Astronomical Twilight
Moon
Length of Visible Light
Length of Day
Tomorrow will be .
, % of the Moon is Illuminated

Today's Extremes

State Highs State Lows

Community

WunderPhotos

Upload Photos

1,817,176 photos uploaded!

WunderBlogs® & News

Nearby

Air Quality

  Air Quality AQ Index Pollutant
Not available.

Snow Depth

Station Depth Elevation

Earthquake Activity

City Distance Mag. Time & Date
Minimum magnitude displayed is 2.5.

Coastal Water Temperatures

Place Temperature

Stations

Nearby Weather Stations

Station Location Temp. Windchill Dew Point Humidity Wind Precip. Elev Updated Type